Thursday, March 30, 2017, 2:23 PM EDT

KESN, Easton / Newman Field

Location: Easton, MD, United States Lat: 38.8
Local Time: 2:23 PM EDT (18:23 GMT) Lon: -76.067
Time Zone: US/Eastern Elev: 72 ft

Show me the last for .
Show Decoded

2017-03-30 13:50 METAR KESN 301750Z 15004KT 10SM OVC060 11/M01 A3024 =
2017-03-30 12:50 METAR KESN 301650Z 15004KT 10SM OVC050 10/M02 A3027 =
2017-03-30 11:50 METAR KESN 301550Z 07004KT 10SM OVC050 09/M01 A3028 =
2017-03-30 10:50 METAR KESN 301450Z 13006KT 10SM OVC050 09/M02 A3029 =
2017-03-30 09:47 METAR KESN 301347Z 08006KT 10SM OVC070 08/M02 A3031 =
2017-03-30 08:50 METAR KESN 301250Z 08008KT 10SM BKN070 07/M02 A3031 =
2017-03-30 07:50 METAR KESN 301150Z 05005KT 10SM BKN070 05/M01 A3031 =
2017-03-30 06:50 METAR KESN 301050Z 06006KT 10SM SCT070 04/M02 A3029 =
2017-03-30 05:53 METAR KESN 300953Z 04003KT 10SM SKC 04/M02 A3027 =
2017-03-30 05:38 METAR KESN 300938Z AUTO 06005KT 10SM CLR 05/M02 A3027 RMK AO2 T00471018 =
2017-03-30 05:20 METAR KESN 300920Z AUTO 06007KT 10SM CLR 04/M02 A3026 RMK AO2 T00411016 =
2017-03-30 05:00 METAR KESN 300900Z AUTO 04003KT 10SM CLR 05/M02 A3026 RMK AO2 T00451017 =
2017-03-30 04:40 METAR KESN 300840Z AUTO 04003KT 10SM CLR 05/M01 A3025 RMK AO2 T00451015 =
2017-03-30 04:20 METAR KESN 300820Z AUTO 00000KT 10SM CLR 04/M02 A3025 RMK AO2 T00411017 =
2017-03-30 04:00 METAR KESN 300800Z AUTO 00000KT 10SM CLR 06/M02 A3024 RMK AO2 T00551016 =
2017-03-30 03:40 METAR KESN 300740Z AUTO 00000KT 10SM CLR 06/M02 A3024 RMK AO2 T00581017 =
2017-03-30 03:20 METAR KESN 300720Z AUTO 00000KT 10SM CLR 06/M02 A3024 RMK AO2 T00621016 =
2017-03-30 03:00 METAR KESN 300700Z AUTO 07003KT 10SM CLR 06/M02 A3023 RMK AO2 T00641020 =
2017-03-30 02:40 METAR KESN 300640Z AUTO 06005KT 10SM CLR 07/M02 A3023 RMK AO2 T00681020 =
2017-03-30 02:20 METAR KESN 300620Z AUTO 07006KT 10SM CLR 07/M02 A3022 RMK AO2 T00731020 =
2017-03-30 02:00 METAR KESN 300600Z AUTO 07007KT 10SM CLR 07/M02 A3022 RMK AO2 T00741017 =
2017-03-30 01:40 METAR KESN 300540Z AUTO 07006KT 10SM CLR 07/M01 A3022 RMK AO2 T00731015 =
2017-03-30 01:20 METAR KESN 300520Z AUTO 07006KT 10SM CLR 09/M01 A3022 RMK AO2 T00851015 =
2017-03-30 01:00 METAR KESN 300500Z AUTO 07007KT 10SM CLR 09/M01 A3022 RMK AO2 T00891010 =
2017-03-30 00:40 METAR KESN 300440Z AUTO 08008KT 10SM CLR 10/M01 A3022 RMK AO2 T00961010 =
2017-03-30 00:20 METAR KESN 300420Z AUTO 08007KT 10SM CLR 10/M01 A3023 RMK AO2 T00971007 =
2017-03-30 00:00 METAR KESN 300400Z AUTO 06008KT 10SM CLR 10/M01 A3023 RMK AO2 T00991007 =
2017-03-29 23:40 METAR KESN 300340Z AUTO 06008KT 10SM CLR 10/M01 A3022 RMK AO2 T01031006 =
2017-03-29 23:20 METAR KESN 300320Z AUTO 06009KT 10SM CLR 11/00 A3022 RMK AO2 T01061004 =
2017-03-29 23:00 METAR KESN 300300Z AUTO 05008KT 10SM CLR 10/00 A3023 RMK AO2 T01030001 =
2017-03-29 22:40 METAR KESN 300240Z AUTO 05007KT 10SM CLR 11/00 A3023 RMK AO2 T01110002 =
2017-03-29 22:20 METAR KESN 300220Z AUTO 05006KT 10SM CLR 09/01 A3023 RMK AO2 T00920006 =
2017-03-29 21:50 METAR KESN 300150Z 02005KT 10SM SKC 12/00 A3022 =
2017-03-29 20:50 METAR KESN 300050Z 02007KT 10SM SKC 13/00 A3021 =
2017-03-29 19:50 METAR KESN 292350Z 01007KT 10SM SKC 14/00 A3017 =
2017-03-29 17:53 METAR KESN 292153Z 35011G15KT 10SM SKC 17/00 A3013 =
2017-03-29 16:50 METAR KESN 292050Z 33008KT 10SM SKC 17/01 A3012 =
2017-03-29 15:50 METAR KESN 291950Z 31011KT 10SM SKC 17/02 A3012 =
2017-03-29 14:50 METAR KESN 291850Z 34009KT 10SM SKC 17/03 A3013 =

Support USWX by starting your Amazon purchase here.